Rabbs Prairie, Texas
Current Conditions -  °F | °C
As of 6:15 PM on Friday 21 Nov 2014 (Local Time) from K3T5 Reporting Station
Scattered Clouds Scattered Clouds  
Wind Chill: 70°   Ceiling: Unl
Heat Index: 70°   Visibility: 10mi
Dew Point: 67°   Wind: 10mph
Humidity: 91%   Direction: 150°SSE
Pressure: 30.04"   Gusts: NA
Location:  29.8569°N, 96.9311°W
Report Text: K3T5 220015Z AUTO 15009KT 10SM SCT017 SCT032 SCT090 21/20 A3004 RMK AO2 LTG DSNT N T02130197
Loading
Personal Weather Stations






























Interactive Weather Map New forecast layout! Learn more

10-Day Weather Forecast

Advertisements
Track Severe Weather on mobile